Time;durP1;ratioP1;P1;durP2;ratioP2;P2;SDS_P1;SDS_P2;PMS_P1;PMS_P2;Temp;Humidity;BMP_temperature;BMP_pressure;BME280_temperature;BME280_humidity;BME280_pressure;Samples;Min_cycle;Max_cycle;Signal;HPM_P1;HPM_P2
2023/06/22 00:01:25;;;;;;;11.15;8.73;;;;;;;21.61;56.12;95056.94;4210071;28;20055;-59
2023/06/22 00:03:27;;;;;;;12.48;8.60;;;;;;;21.58;56.32;95062.72;4206631;28;20044;-58
2023/06/22 00:05:29;;;;;;;11.57;9.20;;;;;;;21.59;56.53;95058.19;4207283;28;20052;-57
2023/06/22 00:07:30;;;;;;;11.38;8.80;;;;;;;21.62;56.63;95068.44;4204638;28;20040;-57
2023/06/22 00:09:33;;;;;;;9.88;8.43;;;;;;;21.62;56.85;95063.91;4206413;28;20058;-57
2023/06/22 00:11:35;;;;;;;9.48;8.35;;;;;;;21.59;56.69;95055.53;4205454;28;20046;-58
2023/06/22 00:13:37;;;;;;;9.05;8.25;;;;;;;21.57;56.65;95054.94;4198237;28;20512;-57
2023/06/22 00:15:40;;;;;;;9.55;8.38;;;;;;;21.55;56.54;95057.81;4207938;28;20056;-57
2023/06/22 00:17:42;;;;;;;10.35;8.73;;;;;;;21.55;56.65;95051.66;4209699;28;20084;-60
2023/06/22 00:19:47;;;;;;;12.85;10.27;;;;;;;21.55;56.40;95052.47;4200179;28;20043;-60
2023/06/22 00:21:52;;;;;;;11.63;8.27;;;;;;;21.54;55.88;95048.19;4199808;28;20052;-58
2023/06/22 00:23:54;;;;;;;9.38;8.23;;;;;;;21.55;55.91;95051.66;4204275;28;20048;-59
2023/06/22 00:25:55;;;;;;;9.38;8.13;;;;;;;21.53;55.95;95049.25;4211052;28;20055;-57
2023/06/22 00:27:57;;;;;;;8.93;8.07;;;;;;;21.45;56.71;95044.19;4210609;28;20122;-56
2023/06/22 00:29:59;;;;;;;9.98;8.98;;;;;;;21.40;57.00;95038.66;4213351;28;20448;-58
2023/06/22 00:32:01;;;;;;;9.55;8.55;;;;;;;21.39;57.07;95031.69;4214627;28;20044;-57
2023/06/22 00:34:03;;;;;;;12.25;8.70;;;;;;;21.37;57.51;95034.56;4210637;28;20093;-58
2023/06/22 00:36:06;;;;;;;11.13;8.98;;;;;;;21.33;57.73;95037.91;4210224;28;20097;-59
2023/06/22 00:38:08;;;;;;;11.02;8.52;;;;;;;21.29;57.87;95034.84;4209986;28;20139;-58
2023/06/22 00:40:11;;;;;;;9.60;8.60;;;;;;;21.27;58.34;95039.56;4206789;28;20105;-59
2023/06/22 00:42:13;;;;;;;9.52;8.52;;;;;;;21.25;57.99;95023.81;4211837;28;20130;-59
2023/06/22 00:44:15;;;;;;;11.77;8.70;;;;;;;21.23;57.91;95033.88;4211620;28;20044;-61
2023/06/22 00:46:17;;;;;;;9.80;8.68;;;;;;;21.22;57.85;95034.91;4208833;28;20044;-59
2023/06/22 00:48:18;;;;;;;11.65;8.43;;;;;;;21.24;58.21;95035.50;4210950;28;20105;-58
2023/06/22 00:50:24;;;;;;;13.80;8.80;;;;;;;21.23;57.63;95039.19;4210378;28;20437;-58
2023/06/22 00:52:29;;;;;;;14.77;8.90;;;;;;;21.24;57.88;95038.16;4208500;28;20047;-58
2023/06/22 00:54:30;;;;;;;10.68;9.30;;;;;;;21.26;57.47;95038.75;4211562;28;20162;-58
2023/06/22 00:56:32;;;;;;;13.10;9.88;;;;;;;21.25;57.37;95039.81;4210732;28;20048;-59
2023/06/22 00:58:35;;;;;;;10.15;9.15;;;;;;;21.27;57.57;95045.75;4202112;28;20423;-60
2023/06/22 01:00:41;;;;;;;12.95;9.85;;;;;;;21.24;57.82;95040.81;4207570;28;20524;-57
2023/06/22 01:02:46;;;;;;;10.40;9.40;;;;;;;21.20;58.16;95044.94;4210598;28;20158;-56
2023/06/22 01:04:48;;;;;;;10.32;9.25;;;;;;;21.20;58.34;95046.81;4211192;28;20048;-56
2023/06/22 01:07:05;;;;;;;15.00;9.73;;;;;;;21.18;58.42;95047.00;4210358;28;20048;-55
2023/06/22 01:09:15;;;;;;;12.65;9.43;;;;;;;20.96;58.71;95048.41;4209041;28;20143;-55
2023/06/22 01:11:22;;;;;;;12.43;9.00;;;;;;;20.82;58.79;95047.66;4208901;28;20050;-60
2023/06/22 01:13:42;;;;;;;12.60;9.40;;;;;;;20.67;59.29;95047.94;4209102;28;20047;-57
2023/06/22 01:15:46;;;;;;;12.93;9.55;;;;;;;20.63;59.71;95044.13;4205080;28;20625;-58
2023/06/22 01:17:48;;;;;;;9.43;8.43;;;;;;;20.66;59.74;95041.00;4210537;28;20066;-57
2023/06/22 01:19:55;;;;;;;9.77;8.32;;;;;;;20.73;59.44;95039.13;4209226;28;20078;-58
2023/06/22 01:21:58;;;;;;;9.40;7.95;;;;;;;20.83;58.94;95038.66;4207550;28;20189;-56
2023/06/22 01:24:19;;;;;;;12.90;8.95;;;;;;;20.86;58.77;95048.88;4212406;28;20043;-58
2023/06/22 01:26:30;;;;;;;9.68;8.43;;;;;;;20.86;58.70;95044.38;4214137;28;20048;-58
2023/06/22 01:28:47;;;;;;;10.55;8.45;;;;;;;20.93;58.60;95048.81;4212613;28;20052;-59
2023/06/22 01:30:49;;;;;;;10.32;8.40;;;;;;;20.94;58.52;95053.13;4213909;28;20062;-58
2023/06/22 01:32:53;;;;;;;13.43;9.32;;;;;;;20.94;58.34;95056.59;4212579;28;20054;-57
2023/06/22 01:34:54;;;;;;;;;;;;;;;20.91;58.28;95057.06;4212476;28;20052;-58
2023/06/22 01:36:56;;;;;;;11.82;9.50;;;;;;;20.90;58.56;95055.41;4211131;28;19920;-59
2023/06/22 01:38:59;;;;;;;13.20;9.68;;;;;;;20.80;58.99;95055.88;4211671;28;20610;-59
2023/06/22 01:41:01;;;;;;;11.93;8.80;;;;;;;20.79;59.42;95053.44;4212473;28;20052;-57
2023/06/22 01:43:03;;;;;;;11.77;8.35;;;;;;;20.80;58.92;95057.72;4214585;28;20044;-58
2023/06/22 01:45:06;;;;;;;10.13;9.00;;;;;;;20.85;58.35;95060.56;4211939;28;20132;-59
2023/06/22 01:47:08;;;;;;;8.98;8.07;;;;;;;20.81;58.55;95054.84;4212464;28;20156;-59
2023/06/22 01:49:10;;;;;;;9.65;8.30;;;;;;;20.79;58.79;95058.75;4212171;28;20059;-59
2023/06/22 01:51:12;;;;;;;12.65;8.60;;;;;;;20.79;58.95;95059.56;4212552;28;20079;-59
2023/06/22 01:53:13;;;;;;;13.57;9.10;;;;;;;20.82;58.97;95060.97;4213058;28;20093;-59
2023/06/22 01:55:15;;;;;;;13.55;8.77;;;;;;;20.82;59.11;95064.47;4212712;28;20070;-58
2023/06/22 01:57:17;;;;;;;10.10;8.55;;;;;;;20.82;58.84;95067.16;4209666;28;20051;-58
2023/06/22 01:59:28;;;;;;;9.93;8.93;;;;;;;20.81;58.95;95067.34;4213470;28;20462;-58
2023/06/22 02:01:40;;;;;;;11.88;9.43;;;;;;;20.82;59.15;95072.47;4213800;28;20485;-57
2023/06/22 02:03:46;;;;;;;14.00;9.95;;;;;;;20.84;59.36;95070.41;4201830;28;20055;-59
2023/06/22 02:05:58;;;;;;;10.93;9.23;;;;;;;20.84;59.13;95081.06;4211652;28;20056;-57
2023/06/22 02:08:06;;;;;;;11.85;9.63;;;;;;;20.85;59.47;95080.03;4212075;28;20383;-55
2023/06/22 02:10:09;;;;;;;12.93;9.38;;;;;;;20.85;59.32;95079.22;4206302;28;20051;-58
2023/06/22 02:12:17;;;;;;;10.10;8.63;;;;;;;20.86;59.06;95084.31;4214626;28;20048;-56
2023/06/22 02:14:18;;;;;;;13.68;8.98;;;;;;;20.85;58.88;95074.69;4213551;28;20115;-57
2023/06/22 02:16:20;;;;;;;9.75;8.50;;;;;;;20.88;58.71;95069.97;4211026;28;20131;-56
2023/06/22 02:18:22;;;;;;;12.73;9.07;;;;;;;20.83;59.02;95066.09;4211705;28;20069;-57
2023/06/22 02:20:24;;;;;;;62.85;39.50;;;;;;;20.72;59.60;95063.31;4213609;28;20406;-61
2023/06/22 02:22:26;;;;;;;16.45;11.75;;;;;;;20.62;59.99;95069.06;4211823;28;20048;-60
2023/06/22 02:24:30;;;;;;;14.43;9.18;;;;;;;20.07;60.87;95072.13;4204428;28;20195;-58
2023/06/22 02:26:32;;;;;;;12.00;8.65;;;;;;;19.48;62.55;95067.69;4213269;28;20540;-55
2023/06/22 02:28:34;;;;;;;11.70;8.65;;;;;;;18.90;63.89;95070.91;4213517;28;20048;-56
2023/06/22 02:30:35;;;;;;;12.18;8.68;;;;;;;18.67;64.63;95066.75;4212131;28;20047;-57
2023/06/22 02:32:42;;;;;;;10.80;8.68;;;;;;;18.84;64.62;95056.59;4203910;28;20078;-60
2023/06/22 02:34:47;;;;;;;13.27;9.27;;;;;;;19.10;64.06;95061.16;4211760;28;20079;-57
2023/06/22 02:36:52;;;;;;;12.45;8.98;;;;;;;19.31;63.17;95062.78;4211997;28;20059;-59
2023/06/22 02:38:56;;;;;;;12.02;8.18;;;;;;;19.45;62.46;95066.25;4201176;28;20481;-57
2023/06/22 02:40:58;;;;;;;10.48;8.77;;;;;;;19.54;62.06;95070.34;4212639;28;20115;-57
2023/06/22 02:43:02;;;;;;;13.82;9.13;;;;;;;19.59;62.07;95073.19;4212445;28;20058;-55
2023/06/22 02:45:04;;;;;;;10.85;9.80;;;;;;;19.67;61.99;95071.38;4210978;28;20138;-56
2023/06/22 02:47:07;;;;;;;11.43;10.20;;;;;;;19.71;61.90;95061.97;4212332;28;20117;-58
2023/06/22 02:49:09;;;;;;;11.15;10.00;;;;;;;19.81;61.89;95062.34;4213226;28;20059;-57
2023/06/22 02:51:11;;;;;;;14.05;10.38;;;;;;;19.91;61.87;95068.06;4211490;28;20051;-54
2023/06/22 02:53:12;;;;;;;13.02;10.07;;;;;;;19.99;61.65;95064.38;4211954;28;20048;-56
2023/06/22 02:55:14;;;;;;;12.23;10.63;;;;;;;19.99;61.82;95067.84;4209971;28;20059;-56
2023/06/22 02:57:16;;;;;;;13.63;10.75;;;;;;;20.03;62.00;95061.09;4209270;28;20048;-55
2023/06/22 02:59:23;;;;;;;13.73;10.27;;;;;;;20.01;61.93;95065.00;4212152;28;20054;-58
2023/06/22 03:01:27;;;;;;;14.10;10.63;;;;;;;19.91;62.72;95068.06;4214717;28;20524;-57
2023/06/22 03:03:29;;;;;;;17.50;11.68;;;;;;;19.85;62.86;95068.88;4214353;28;20043;-59
2023/06/22 03:05:35;;;;;;;12.45;10.75;;;;;;;19.82;62.82;95061.34;4212371;28;20055;-57
2023/06/22 03:07:37;;;;;;;23.05;11.93;;;;;;;19.77;63.37;95067.28;4211686;28;20059;-57
2023/06/22 03:09:38;;;;;;;14.45;12.95;;;;;;;19.69;63.49;95059.50;4213028;28;20493;-55
2023/06/22 03:11:40;;;;;;;13.52;11.35;;;;;;;19.68;63.63;95080.94;4212661;28;20490;-55
2023/06/22 03:13:42;;;;;;;22.40;11.38;;;;;;;19.64;63.83;95081.38;4213848;28;20133;-56
2023/06/22 03:15:43;;;;;;;15.68;11.50;;;;;;;19.63;63.80;95078.91;4212716;28;20090;-56
2023/06/22 03:17:46;;;;;;;18.58;13.63;;;;;;;19.62;64.11;95083.44;4213375;28;20066;-57
2023/06/22 03:19:48;;;;;;;15.60;12.70;;;;;;;19.54;64.61;95094.25;4212313;28;20090;-57
2023/06/22 03:21:49;;;;;;;15.88;12.05;;;;;;;19.54;64.80;95098.75;4211593;28;20551;-56
2023/06/22 03:23:51;;;;;;;15.93;12.35;;;;;;;19.54;64.68;95102.22;4211000;28;20044;-56
2023/06/22 03:25:55;;;;;;;16.52;13.50;;;;;;;19.53;64.75;95097.94;4200044;28;20044;-57
2023/06/22 03:27:57;;;;;;;19.25;12.77;;;;;;;19.61;64.85;95096.91;4212539;28;20050;-55
2023/06/22 03:29:58;;;;;;;18.67;12.68;;;;;;;19.68;64.45;95102.22;4211777;28;20619;-57
2023/06/22 03:32:00;;;;;;;15.40;12.88;;;;;;;19.79;64.37;95096.34;4210837;28;20409;-58
2023/06/22 03:34:02;;;;;;;14.25;11.77;;;;;;;19.88;64.03;95100.41;4212561;28;20040;-57
2023/06/22 03:36:04;;;;;;;17.83;13.18;;;;;;;20.00;63.80;95096.09;4210825;28;20076;-54
2023/06/22 03:38:05;;;;;;;19.92;12.60;;;;;;;20.08;63.47;95104.88;4211489;28;20056;-56
2023/06/22 03:40:08;;;;;;;15.77;13.50;;;;;;;19.93;64.05;95105.91;4210902;28;20187;-56
2023/06/22 03:42:09;;;;;;;17.88;13.32;;;;;;;19.79;64.50;95112.28;4210452;28;20052;-56
2023/06/22 03:44:12;;;;;;;17.45;13.38;;;;;;;19.60;65.49;95122.66;4212391;28;20044;-56
2023/06/22 03:46:14;;;;;;;21.10;14.13;;;;;;;19.52;65.89;95117.56;4210919;28;20074;-55
2023/06/22 03:48:15;;;;;;;16.15;14.02;;;;;;;19.50;65.83;95118.78;4210889;28;20054;-55
2023/06/22 03:50:20;;;;;;;17.45;13.82;;;;;;;19.50;65.95;95114.28;4210960;28;20040;-56
2023/06/22 03:52:22;;;;;;;17.35;14.02;;;;;;;19.60;65.84;95127.19;4206876;28;20577;-58
2023/06/22 03:54:24;;;;;;;19.23;13.75;;;;;;;19.67;65.59;95130.63;4218855;28;20044;-55
2023/06/22 03:56:25;;;;;;;15.70;12.52;;;;;;;19.74;65.23;95139.44;4218334;28;20400;-56
2023/06/22 03:58:32;;;;;;;16.48;12.40;;;;;;;19.80;64.68;95135.16;4222663;28;20176;-56
2023/06/22 04:00:34;;;;;;;15.93;12.95;;;;;;;19.84;64.66;95125.75;4214081;28;20044;-58
2023/06/22 04:02:36;;;;;;;16.42;12.85;;;;;;;19.92;64.26;95122.06;4211413;28;20123;-58
2023/06/22 04:04:39;;;;;;;20.15;13.40;;;;;;;19.83;64.50;95124.09;4211415;28;20051;-58
2023/06/22 04:06:41;;;;;;;17.48;13.50;;;;;;;19.86;64.48;95131.69;4214451;28;20133;-58
2023/06/22 04:08:42;;;;;;;14.98;12.98;;;;;;;19.95;64.35;95126.97;4223530;28;20055;-58
2023/06/22 04:10:44;;;;;;;17.63;12.27;;;;;;;20.04;63.80;95121.22;4213993;28;20526;-59
2023/06/22 04:12:47;;;;;;;13.77;12.35;;;;;;;20.17;63.65;95107.06;4222972;28;20055;-59
2023/06/22 04:14:48;;;;;;;15.00;12.85;;;;;;;20.30;63.52;95095.56;4220947;28;20298;-57
2023/06/22 04:16:51;;;;;;;15.13;12.25;;;;;;;20.46;63.28;95102.28;4211330;28;20048;-58
2023/06/22 04:18:53;;;;;;;17.42;12.50;;;;;;;20.61;63.00;95102.06;4211064;28;20052;-57
2023/06/22 04:20:54;;;;;;;15.18;12.98;;;;;;;20.74;62.52;95101.19;4222026;28;20112;-56
2023/06/22 04:22:56;;;;;;;15.30;12.30;;;;;;;20.80;62.36;95093.16;4220851;28;20051;-56
2023/06/22 04:24:58;;;;;;;15.00;11.70;;;;;;;20.89;62.11;95096.41;4211945;28;20044;-57
2023/06/22 04:27:02;;;;;;;20.17;12.65;;;;;;;20.97;61.74;95096.16;4210812;28;20130;-60
2023/06/22 04:29:05;;;;;;;17.02;12.18;;;;;;;21.03;61.58;95092.59;4211951;28;20476;-59
2023/06/22 04:31:07;;;;;;;18.38;12.70;;;;;;;21.13;61.41;95096.66;4211888;28;20058;-60
2023/06/22 04:33:09;;;;;;;17.27;13.15;;;;;;;21.23;61.01;95099.66;4211034;28;20048;-58
2023/06/22 04:35:11;;;;;;;17.25;12.25;;;;;;;21.33;60.97;95101.84;4210561;28;20051;-57
2023/06/22 04:37:15;;;;;;;17.17;12.05;;;;;;;21.39;60.23;95104.47;4209530;28;20059;-59
2023/06/22 04:39:18;;;;;;;15.20;12.05;;;;;;;21.47;60.28;95104.22;4220534;28;20055;-60
2023/06/22 04:41:23;;;;;;;14.50;12.25;;;;;;;21.51;60.25;95104.63;4226079;28;20382;-60
2023/06/22 04:43:30;;;;;;;14.35;11.70;;;;;;;21.54;59.63;95109.50;4222644;28;20109;-61
2023/06/22 04:45:37;;;;;;;16.77;12.15;;;;;;;21.58;59.78;95108.03;4211170;28;20059;-57
2023/06/22 04:47:39;;;;;;;14.65;12.60;;;;;;;21.61;60.20;95110.25;4221058;28;20040;-58
2023/06/22 04:49:43;;;;;;;21.05;13.50;;;;;;;21.50;59.84;95110.97;4210558;28;20509;-57
2023/06/22 04:51:44;;;;;;;19.27;13.43;;;;;;;21.28;60.35;95103.31;4212570;28;20051;-56
2023/06/22 04:53:46;;;;;;;15.25;12.60;;;;;;;21.28;60.74;95105.97;4216918;28;20101;-57
2023/06/22 04:55:49;;;;;;;20.27;12.80;;;;;;;21.28;60.62;95113.16;4213994;28;20101;-57
2023/06/22 04:57:50;;;;;;;23.27;13.30;;;;;;;21.11;60.40;95118.19;4208832;28;20079;-60
2023/06/22 04:59:52;;;;;;;17.73;14.23;;;;;;;20.83;61.41;95124.69;4224746;28;20100;-59
2023/06/22 05:01:58;;;;;;;27.05;13.40;;;;;;;20.54;62.67;95115.38;4215965;28;20048;-60
2023/06/22 05:04:01;;;;;;;16.65;13.40;;;;;;;20.54;62.61;95115.38;4209563;28;20419;-60
2023/06/22 05:06:03;;;;;;;16.48;12.98;;;;;;;20.34;62.15;95123.41;4208234;28;20073;-58
2023/06/22 05:08:06;;;;;;;21.02;13.02;;;;;;;20.30;62.31;95113.38;4210055;28;20043;-56
2023/06/22 05:10:08;;;;;;;;;;;;;;;20.28;62.16;95116.25;4205129;28;20123;-61
2023/06/22 05:12:11;;;;;;;15.27;13.23;;;;;;;20.42;61.47;95112.53;4209471;28;19935;-57
2023/06/22 05:14:13;;;;;;;19.60;12.33;;;;;;;20.43;61.32;95114.19;4212817;28;20066;-60
2023/06/22 05:16:32;;;;;;;14.98;12.73;;;;;;;20.48;61.50;95115.38;4200114;28;20263;-57
2023/06/22 05:18:34;;;;;;;19.77;12.82;;;;;;;20.44;61.82;95115.00;4203260;28;20110;-60
2023/06/22 05:20:36;;;;;;;15.38;13.07;;;;;;;20.68;61.76;95112.69;4206347;28;20056;-57
2023/06/22 05:22:42;;;;;;;17.27;13.13;;;;;;;20.92;61.33;95116.44;4210432;28;20059;-59
2023/06/22 05:24:44;;;;;;;17.00;13.45;;;;;;;20.93;60.74;95116.25;4211303;28;20131;-59
2023/06/22 05:26:46;;;;;;;18.55;13.57;;;;;;;20.92;61.03;95117.25;4198128;28;20131;-59
2023/06/22 05:28:48;;;;;;;17.17;13.88;;;;;;;21.11;60.79;95117.38;4210170;28;20130;-60
2023/06/22 05:30:50;;;;;;;21.23;13.82;;;;;;;21.34;60.00;95112.31;4211459;28;20268;-58
2023/06/22 05:32:52;;;;;;;16.55;12.45;;;;;;;21.19;59.88;95125.91;4211190;28;20102;-60
2023/06/22 05:34:54;;;;;;;20.15;13.25;;;;;;;21.30;59.81;95129.75;4209637;28;20056;-57
2023/06/22 05:36:58;;;;;;;21.25;12.55;;;;;;;21.40;60.02;95131.91;4209739;28;20459;-59
2023/06/22 05:39:12;;;;;;;17.75;12.25;;;;;;;21.53;60.06;95136.38;4209139;28;20052;-60
2023/06/22 05:41:14;;;;;;;15.50;12.35;;;;;;;21.58;60.10;95141.88;4217427;28;20052;-59
2023/06/22 05:43:15;;;;;;;16.45;12.38;;;;;;;21.64;59.81;95141.03;4211925;28;20600;-59
2023/06/22 05:45:17;;;;;;;16.02;13.10;;;;;;;21.32;60.32;95137.53;4220958;28;20273;-59
2023/06/22 05:47:19;;;;;;;21.50;13.52;;;;;;;21.29;61.20;95138.75;4210657;28;20044;-57
2023/06/22 05:49:22;;;;;;;16.42;13.50;;;;;;;21.45;61.00;95143.59;4220816;28;20051;-57
2023/06/22 05:51:23;;;;;;;20.00;13.63;;;;;;;21.33;60.96;95147.16;4209840;28;20048;-58
2023/06/22 05:53:25;;;;;;;14.80;13.20;;;;;;;21.57;60.43;95153.56;4210784;28;20055;-58
2023/06/22 05:55:27;;;;;;;18.85;13.95;;;;;;;21.64;61.10;95146.34;4215888;28;20047;-58
2023/06/22 05:57:29;;;;;;;18.58;14.32;;;;;;;21.74;60.41;95151.19;4204443;28;20138;-60
2023/06/22 05:59:30;;;;;;;20.98;13.52;;;;;;;21.95;59.97;95152.66;4205694;28;20048;-59
2023/06/22 06:01:35;;;;;;;17.60;13.88;;;;;;;22.18;59.13;95144.84;4202685;28;20516;-60
2023/06/22 06:03:41;;;;;;;18.08;14.50;;;;;;;22.28;58.11;95144.34;4210903;28;20413;-60
2023/06/22 06:05:43;;;;;;;19.23;14.10;;;;;;;22.36;58.39;95145.94;4210144;28;20048;-60
2023/06/22 06:07:46;;;;;;;16.77;14.60;;;;;;;22.39;58.29;95149.00;4211346;28;20051;-59
2023/06/22 06:09:48;;;;;;;22.73;14.02;;;;;;;22.56;57.94;95145.72;4211179;28;20505;-60
2023/06/22 06:11:49;;;;;;;18.25;12.73;;;;;;;22.77;57.39;95137.25;4213467;28;20150;-53
2023/06/22 06:13:51;;;;;;;14.95;13.27;;;;;;;22.98;56.83;95132.47;4213808;28;20056;-59
2023/06/22 06:15:54;;;;;;;16.35;12.68;;;;;;;23.17;56.29;95126.06;4204179;28;20051;-60
2023/06/22 06:17:56;;;;;;;;;;;;;;;23.37;56.17;95124.97;4213487;28;20066;-58
2023/06/22 06:20:02;;;;;;;16.27;12.52;;;;;;;23.52;56.19;95120.81;4215850;28;20337;-58
2023/06/22 06:22:04;;;;;;;16.58;13.43;;;;;;;23.63;55.77;95123.75;4213144;28;20056;-58
2023/06/22 06:24:06;;;;;;;19.27;13.32;;;;;;;23.71;55.50;95124.22;4211423;28;20128;-55
2023/06/22 06:26:08;;;;;;;14.60;12.65;;;;;;;23.84;55.13;95125.88;4205710;28;20530;-60
2023/06/22 06:28:10;;;;;;;19.95;13.05;;;;;;;24.00;54.95;95126.25;4213971;28;20060;-59
2023/06/22 06:30:13;;;;;;;17.13;12.45;;;;;;;24.14;54.16;95126.84;4212643;28;20105;-57
2023/06/22 06:32:15;;;;;;;15.07;12.55;;;;;;;24.29;53.85;95124.50;4213352;28;20055;-58
2023/06/22 06:34:17;;;;;;;16.20;11.07;;;;;;;24.40;53.20;95131.69;4213627;28;20101;-58
2023/06/22 06:36:18;;;;;;;14.55;11.60;;;;;;;24.49;52.51;95124.97;4212730;28;20044;-58
2023/06/22 06:38:20;;;;;;;15.80;10.73;;;;;;;24.63;52.93;95122.00;4212471;28;20063;-58
2023/06/22 06:40:22;;;;;;;12.57;11.15;;;;;;;24.79;52.75;95118.59;4213032;28;20044;-59
2023/06/22 06:42:24;;;;;;;18.10;12.40;;;;;;;24.93;51.92;95122.63;4211431;28;20044;-59
2023/06/22 06:44:25;;;;;;;18.33;12.32;;;;;;;25.06;51.55;95118.03;4213111;28;20055;-60
2023/06/22 06:46:27;;;;;;;15.23;11.60;;;;;;;25.06;51.50;95113.50;4212156;28;20090;-60
2023/06/22 06:48:29;;;;;;;15.77;11.10;;;;;;;25.10;51.72;95108.47;4212487;28;20048;-58
2023/06/22 06:50:31;;;;;;;16.52;11.80;;;;;;;25.20;51.69;95108.69;4211935;28;20090;-58
2023/06/22 06:52:33;;;;;;;13.60;10.65;;;;;;;25.26;51.74;95109.59;4219094;28;20409;-57
2023/06/22 06:54:38;;;;;;;13.80;11.40;;;;;;;25.13;51.34;95097.28;4211120;28;20418;-60
2023/06/22 06:56:39;;;;;;;16.52;10.82;;;;;;;25.22;51.80;95098.53;4212546;28;20052;-60
2023/06/22 06:58:45;;;;;;;15.93;12.32;;;;;;;25.28;50.96;95104.81;4213101;28;20048;-60
2023/06/22 07:00:47;;;;;;;15.32;12.45;;;;;;;25.02;51.47;95103.50;4213321;28;20052;-60
2023/06/22 07:02:48;;;;;;;17.92;11.98;;;;;;;25.11;51.31;95092.13;4212934;28;20052;-64
2023/06/22 07:04:50;;;;;;;18.55;11.60;;;;;;;24.92;51.30;95098.75;4218784;28;20525;-61
2023/06/22 07:06:52;;;;;;;18.00;11.93;;;;;;;24.99;51.58;95104.78;4218298;28;20108;-55
2023/06/22 07:08:55;;;;;;;20.85;12.88;;;;;;;25.00;51.62;95098.38;4227035;28;20054;-56
2023/06/22 07:10:56;;;;;;;15.10;11.47;;;;;;;25.22;51.50;95100.41;4216141;28;20122;-58
2023/06/22 07:12:58;;;;;;;15.00;11.73;;;;;;;25.30;51.43;95100.03;4212066;28;20361;-57
2023/06/22 07:15:05;;;;;;;17.77;12.35;;;;;;;25.42;51.11;95100.75;4208030;28;20047;-60
2023/06/22 07:17:06;;;;;;;15.73;10.90;;;;;;;25.14;50.51;95109.59;4206495;28;20051;-60
2023/06/22 07:19:10;;;;;;;18.27;11.60;;;;;;;25.20;50.51;95103.31;4224106;28;20044;-59
2023/06/22 07:21:12;;;;;;;14.13;10.85;;;;;;;25.41;51.03;95103.69;4199688;28;20082;-57
2023/06/22 07:23:14;;;;;;;16.05;11.05;;;;;;;25.66;50.31;95103.28;4211562;28;20048;-58
2023/06/22 07:25:17;;;;;;;15.32;11.40;;;;;;;25.84;49.87;95102.25;4212633;28;20075;-60
2023/06/22 07:27:19;;;;;;;15.70;11.88;;;;;;;25.60;50.17;95105.09;4211277;28;20048;-60
2023/06/22 07:29:21;;;;;;;15.53;11.57;;;;;;;25.32;51.02;95097.91;4213067;28;20446;-58
2023/06/22 07:31:26;;;;;;;14.35;11.80;;;;;;;25.04;51.46;95104.88;4212770;28;20048;-60
2023/06/22 07:33:27;;;;;;;23.17;11.43;;;;;;;25.11;51.69;95100.19;4212560;28;20056;-60
2023/06/22 07:35:30;;;;;;;16.27;11.18;;;;;;;25.25;52.37;95100.75;4210362;28;20046;-60
2023/06/22 07:37:33;;;;;;;18.42;12.13;;;;;;;25.22;51.80;95109.25;4212266;28;20120;-59
2023/06/22 07:39:37;;;;;;;19.38;12.48;;;;;;;25.09;52.15;95109.53;4211682;28;20055;-59
2023/06/22 07:41:43;;;;;;;19.02;12.07;;;;;;;25.27;52.42;95103.97;4209923;28;20060;-60
2023/06/22 07:43:44;;;;;;;19.70;13.13;;;;;;;25.13;52.10;95113.34;4212299;28;20060;-60
2023/06/22 07:45:52;;;;;;;18.75;12.90;;;;;;;25.02;52.68;95111.53;4212264;28;20527;-58
2023/06/22 07:47:54;;;;;;;16.88;12.63;;;;;;;25.06;53.07;95113.50;4212834;28;20052;-59
2023/06/22 07:49:58;;;;;;;16.25;11.73;;;;;;;25.45;52.74;95118.25;4212049;28;20081;-56
2023/06/22 07:52:01;;;;;;;13.48;12.00;;;;;;;25.56;52.31;95116.56;4218470;28;20129;-58
2023/06/22 07:54:04;;;;;;;21.83;11.85;;;;;;;25.63;51.76;95106.47;4211934;28;20070;-57
2023/06/22 07:56:09;;;;;;;14.35;11.40;;;;;;;25.82;51.09;95115.09;4216785;28;20040;-58
2023/06/22 07:58:11;;;;;;;18.77;12.65;;;;;;;25.92;51.59;95109.91;4220924;28;20593;-59
2023/06/22 08:00:15;;;;;;;18.63;12.15;;;;;;;26.09;51.57;95110.72;4216449;28;20377;-57
2023/06/22 08:02:16;;;;;;;17.17;11.15;;;;;;;25.98;51.75;95106.22;4220430;28;20052;-60
2023/06/22 08:04:18;;;;;;;13.40;10.68;;;;;;;25.93;51.34;95104.28;4211283;28;20093;-64
2023/06/22 08:06:20;;;;;;;12.68;10.65;;;;;;;25.99;50.94;95102.50;4210622;28;20492;-58
2023/06/22 08:08:22;;;;;;;15.98;12.68;;;;;;;25.98;51.16;95102.75;4209934;28;20040;-60
2023/06/22 08:10:24;;;;;;;15.55;11.38;;;;;;;26.00;50.79;95092.56;4211965;28;20048;-58
2023/06/22 08:12:26;;;;;;;13.25;11.80;;;;;;;26.02;51.20;95098.50;4212259;28;20048;-59
2023/06/22 08:14:29;;;;;;;12.02;10.68;;;;;;;25.99;51.64;95093.66;4222965;28;20127;-60
2023/06/22 08:16:30;;;;;;;13.15;11.05;;;;;;;25.84;52.73;95086.16;4204785;28;20044;-59
2023/06/22 08:18:32;;;;;;;13.27;10.65;;;;;;;25.95;52.58;95090.63;4211948;28;20052;-61
2023/06/22 08:20:34;;;;;;;13.50;11.75;;;;;;;26.15;52.61;95088.22;4218942;28;20051;-61
2023/06/22 08:22:36;;;;;;;15.77;11.63;;;;;;;26.40;51.95;95088.84;4219017;28;20446;-60
2023/06/22 08:24:38;;;;;;;12.90;11.63;;;;;;;26.53;51.48;95089.28;4211623;28;20052;-59
2023/06/22 08:26:40;;;;;;;13.63;10.45;;;;;;;26.60;50.21;95091.00;4212541;28;20071;-60
2023/06/22 08:28:41;;;;;;;11.68;10.27;;;;;;;26.69;50.15;95081.44;4211683;28;20052;-60
2023/06/22 08:30:43;;;;;;;11.52;10.25;;;;;;;26.65;50.02;95077.59;4211035;28;20105;-58
2023/06/22 08:32:45;;;;;;;12.35;9.93;;;;;;;26.83;49.68;95077.31;4211196;28;20047;-59
2023/06/22 08:34:46;;;;;;;11.32;10.00;;;;;;;26.91;49.46;95086.78;4211036;28;20059;-60
2023/06/22 08:36:52;;;;;;;13.85;9.82;;;;;;;26.99;48.59;95080.94;4210815;28;20039;-60
2023/06/22 08:38:53;;;;;;;11.20;9.55;;;;;;;27.14;48.48;95078.41;4210864;28;20546;-57
2023/06/22 08:40:55;;;;;;;10.45;9.38;;;;;;;27.02;47.77;95085.00;4211310;28;20062;-60
2023/06/22 08:42:58;;;;;;;10.20;9.20;;;;;;;26.73;47.63;95088.72;4211086;28;20502;-58
2023/06/22 08:44:59;;;;;;;11.02;9.65;;;;;;;26.35;48.75;95100.34;4211241;28;20048;-59
2023/06/22 08:47:02;;;;;;;12.73;10.25;;;;;;;26.38;49.63;95091.75;4211244;28;20084;-60
2023/06/22 08:49:04;;;;;;;13.50;9.52;;;;;;;26.22;48.92;95081.88;4211199;28;20052;-62
2023/06/22 08:51:05;;;;;;;14.82;10.05;;;;;;;26.41;49.30;95085.06;4209678;28;20591;-60
2023/06/22 08:53:07;;;;;;;11.43;9.30;;;;;;;26.67;48.79;95087.06;4210772;28;20048;-61
2023/06/22 08:55:10;;;;;;;14.48;10.35;;;;;;;26.91;48.24;95074.16;4213137;28;20051;-60
2023/06/22 08:57:11;;;;;;;14.30;9.25;;;;;;;27.01;47.38;95075.34;4215738;28;20055;-60
2023/06/22 08:59:13;;;;;;;10.30;9.18;;;;;;;27.15;47.08;95071.19;4217880;28;20047;-61
2023/06/22 09:01:15;;;;;;;13.73;9.07;;;;;;;27.28;47.26;95067.31;4210759;28;20048;-61
2023/06/22 09:03:17;;;;;;;12.00;8.85;;;;;;;27.40;47.14;95064.44;4210853;28;20052;-61
2023/06/22 09:05:19;;;;;;;12.85;8.70;;;;;;;27.56;46.78;95064.31;4213197;28;20040;-62
2023/06/22 09:07:24;;;;;;;10.52;9.23;;;;;;;27.73;45.37;95064.19;4209904;28;20051;-59
2023/06/22 09:09:26;;;;;;;9.75;8.10;;;;;;;27.88;45.03;95055.44;4208733;28;20048;-60
2023/06/22 09:11:27;;;;;;;8.88;7.95;;;;;;;27.97;43.82;95056.56;4221106;28;20407;-59
2023/06/22 09:13:30;;;;;;;8.85;7.70;;;;;;;28.05;43.82;95054.44;4211323;28;20040;-59
2023/06/22 09:15:34;;;;;;;10.75;7.72;;;;;;;28.18;43.74;95065.59;4202779;28;20063;-60
2023/06/22 09:17:36;;;;;;;9.32;7.68;;;;;;;28.19;43.22;95059.09;4220746;28;20126;-59
2023/06/22 09:19:38;;;;;;;8.65;7.75;;;;;;;28.28;43.50;95058.63;4214347;28;20048;-61
2023/06/22 09:21:40;;;;;;;8.50;7.60;;;;;;;28.37;43.24;95063.25;4224667;28;20120;-62
2023/06/22 09:23:41;;;;;;;9.23;7.40;;;;;;;28.39;42.67;95063.81;4214613;28;20118;-62
2023/06/22 09:25:43;;;;;;;9.38;7.13;;;;;;;28.35;41.21;95054.63;4212172;28;20040;-61
2023/06/22 09:27:45;;;;;;;10.00;7.28;;;;;;;28.44;41.73;95060.31;4211312;28;20501;-60
2023/06/22 09:29:46;;;;;;;8.75;7.40;;;;;;;28.51;40.95;95062.81;4211233;28;20078;-62